• Join FlightAware (Why Join?)
  • Login
  • US Flag 
02:55AM EDT


 

Airport Tracker/Info


-or-


 

Live Flight TrackerFlight Track Log ✈ AAL700 ✈ 08-May-2013 ✈ KDFW - KLGA

Flight Track Log - Related Links

Times and Time Zones

All times are in EDT time to prevent confusion due to time zone crossing. See the AAL700 flight status page for this flight to view local times or setup timezone preferences in your user account.

Time Position Orientation Groundspeed Altitude Reporting Facility
EDT Latitude Longitude Course Direction KTS MPH feet Rate Location/Type
07:24AM 32.8833 -97.0333 67° East 154 177 1,600  Level Dallas / Fort Worth TRACON
07:26AM 32.8167 -97.0000 157° South 222 255 3,400 1,740 Climbing Dallas / Fort Worth TRACON
07:27AM 32.7996 -96.7180 68° East  Level FlightAware Approximate
07:27AM 32.7667 -96.9500 140° Southeast 266 306 5,700  Level Dallas / Fort Worth TRACON
07:28AM 32.8549 -96.5903 59° Northeast  Level FlightAware Approximate
07:28AM 32.7667 -96.8667 90° East 291 335 8,000  Level Dallas / Fort Worth TRACON
07:29AM 32.9131 -96.4642 67° East  Level FlightAware Approximate
07:29AM 32.8000 -96.7500 71° East 316 364 10,900  Level Dallas / Fort Worth TRACON
07:30AM 32.9612 -96.3318 67° East  Level FlightAware Approximate
07:31AM 32.8825 -96.5500 64° Northeast 374 430 15,000  Level Fort Worth Center
07:32AM 32.9358 -96.4183 64° Northeast 391 450 17,600 2,520 Climbing Fort Worth Center
07:33AM 32.9725 -96.3067 69° East 403 464 20,000 2,280 Climbing Fort Worth Center
07:34AM 32.9961 -96.1550 79° East 408 470 22,300 2,040 Climbing Fort Worth Center
07:35AM 33.0136 -96.0286 81° East 430 495 24,200 1,860 Climbing Fort Worth Center
07:36AM 33.0347 -95.8697 81° East 435 501 26,100 1,560 Climbing Fort Worth Center
07:37AM 33.0539 -95.7331 80° East 448 516 27,300 1,200 Climbing Fort Worth Center
07:38AM 33.0725 -95.5617 83° East 464 534 28,500 1,320 Climbing Fort Worth Center
07:39AM 33.1181 -95.4094 70° East 469 540 30,000 1,740 Climbing Fort Worth Center
07:40AM 33.1636 -95.2594 70° East 474 545 32,000 1,800 Climbing Fort Worth Center
07:41AM 33.2111 -95.1094 69° East 479 551 33,600 1,380 Climbing Fort Worth Center
07:42AM 33.2522 -94.9642 71° East 474 545 34,900 1,140 Climbing Fort Worth Center
07:43AM 33.2972 -94.8164 70° East 468 539 35,900 1,080 Climbing Fort Worth Center
07:44AM 33.3419 -94.6683 70° East 468 539 37,100 1,200 Climbing Fort Worth Center
07:45AM 33.3847 -94.5228 71° East 468 539 38,400 900 Climbing Fort Worth Center
07:46AM 33.4272 -94.3794 70° East 468 539 39,000 300 Climbing Fort Worth Center
07:47AM 33.4694 -94.2361 71° East 463 533 39,000  Level Fort Worth Center
07:48AM 33.5117 -94.0925 71° East 458 527 39,000  Level Fort Worth Center
07:49AM 33.5664 -93.9533 65° Northeast 453 521 39,000  Level Fort Worth Center
07:50AM 33.6381 -93.7606 66° East 451 519 39,000  Level Memphis Center
07:51AM 33.6917 -93.6253 65° Northeast 451 519 39,000  Level Memphis Center
07:52AM 33.7433 -93.4847 66° East 451 519 39,000  Level Memphis Center
07:53AM 33.8011 -93.3369 65° Northeast 457 526 39,000  Level Memphis Center
07:54AM 33.8544 -93.1986 65° Northeast 451 519 39,000  Level Memphis Center
07:55AM 33.9078 -93.0603 65° Northeast 451 519 39,000  Level Memphis Center
07:56AM 33.9608 -92.9217 65° Northeast 451 519 39,000  Level Memphis Center
07:57AM 34.0114 -92.7828 66° East 451 519 39,000  Level Memphis Center
07:58AM 34.0619 -92.6464 66° East 451 519 39,000  Level Memphis Center
07:59AM 34.1061 -92.5169 68° East 451 519 39,000  Level Memphis Center
08:00AM 34.1586 -92.3803 65° Northeast 458 527 39,000  Level Memphis Center
08:01AM 34.2086 -92.2408 67° East 453 521 39,000  Level Memphis Center
08:02AM 34.2586 -92.1064 66° East 448 516 39,000  Level Memphis Center
08:03AM 34.3106 -91.9664 66° East 442 509 39,000  Level Memphis Center
08:04AM 34.3603 -91.8314 66° East 442 509 39,000  Level Memphis Center
08:05AM 34.4142 -91.6814 66° East 436 502 39,000  Level Memphis Center
08:06AM 34.4633 -91.5436 67° East 436 502 39,000  Level Memphis Center
08:07AM 34.5147 -91.4056 66° East 441 507 39,000  Level Memphis Center
08:08AM 34.5594 -91.2800 67° East 441 507 39,000  Level Memphis Center
08:09AM 34.6128 -91.1419 65° Northeast 447 514 39,000  Level Memphis Center
08:10AM 34.6614 -90.9983 68° East 447 514 39,000  Level Memphis Center
08:11AM 34.7122 -90.8547 67° East 458 527 39,000  Level Memphis Center
08:12AM 34.7628 -90.7161 66° East 458 527 39,000  Level Memphis Center
08:13AM 34.8131 -90.5719 67° East 458 527 39,000  Level Memphis Center
08:14AM 34.8675 -90.4153 67° East 458 527 39,000  Level Memphis Center
08:15AM 34.9175 -90.2736 67° East 453 521 39,000  Level Memphis Center
08:16AM 34.9675 -90.1292 67° East 459 528 39,000  Level Memphis Center
08:17AM 35.0192 -89.9869 66° East 454 522 39,000  Level Memphis Center
08:18AM 35.0708 -89.8419 66° East 454 522 39,000  Level Memphis Center
08:19AM 35.1161 -89.7122 67° East 454 522 39,000  Level Memphis Center
08:20AM 35.1656 -89.5672 67° East 459 528 39,000  Level Memphis Center
08:21AM 35.2167 -89.4242 66° East 459 528 39,000  Level Memphis Center
08:22AM 35.2656 -89.2839 67° East 454 522 39,000  Level Memphis Center
08:24AM 35.3689 -88.9847 67° East 454 522 39,000  Level Memphis Center
08:25AM 35.4194 -88.8411 67° East 454 522 39,000  Level Memphis Center
08:26AM 35.4675 -88.6950 68° East 454 522 39,000  Level Memphis Center
08:27AM 35.5156 -88.5536 67° East 454 522 39,000  Level Memphis Center
08:28AM 35.5678 -88.4069 66° East 454 522 39,000  Level Memphis Center
08:29AM 35.6133 -88.2681 68° East 454 522 39,000  Level Memphis Center
08:30AM 35.6631 -88.1339 65° Northeast 444 511 39,000  Level Memphis Center
08:31AM 35.7064 -87.9947 69° East 430 495 39,000  Level Memphis Center
08:32AM 35.7558 -87.8525 67° East 438 504 39,000  Level Memphis Center
08:33AM 35.8031 -87.7106 68° East 443 510 39,000  Level Memphis Center
08:34AM 35.8478 -87.5656 69° East 443 510 39,000  Level Memphis Center
08:35AM 35.8944 -87.4256 68° East 443 510 39,000  Level Memphis Center
08:36AM 35.9394 -87.2958 67° East 437 503 39,000  Level Memphis Center
08:37AM 35.9839 -87.1556 69° East 443 510 39,000  Level Memphis Center
08:38AM 36.0300 -87.0128 68° East 443 510 39,000  Level Memphis Center
08:39AM 36.0742 -86.8697 69° East 438 504 39,000  Level Memphis Center
08:40AM 36.1178 -86.7264 69° East 443 510 39,000  Level Memphis Center
08:41AM 36.1658 -86.5856 67° East 443 510 39,000  Level Memphis Center
08:42AM 36.2114 -86.4444 68° East 438 504 39,000  Level Memphis Center
08:43AM 36.2569 -86.3058 68° East 438 504 39,000  Level Memphis Center
08:44AM 36.3044 -86.1644 67° East 438 504 39,000  Level Memphis Center
08:45AM 36.3494 -86.0206 69° East 438 504 39,000  Level Memphis Center
08:46AM 36.3967 -85.8786 68° East 438 504 39,000  Level Memphis Center
08:49AM 36.5083 -85.5233 69° East 447 514 39,000  Level Indianapolis Center
08:50AM 36.5525 -85.3803 69° East 441 507 39,000  Level Indianapolis Center
08:51AM 36.5969 -85.2367 69° East 443 510 39,000  Level Indianapolis Center
08:52AM 36.6414 -85.0911 69° East 446 513 39,000  Level Indianapolis Center
08:53AM 36.6858 -84.9458 69° East 447 514 39,000  Level Indianapolis Center
08:54AM 36.7303 -84.8008 69° East 447 514 39,000  Level Indianapolis Center
08:55AM 36.7756 -84.6550 69° East 448 516 39,000  Level Indianapolis Center
08:56AM 36.8267 -84.4872 69° East 450 518 39,000  Level Indianapolis Center
08:57AM 36.8708 -84.3400 69° East 451 519 39,000  Level Indianapolis Center
08:58AM 36.9139 -84.1922 70° East 454 522 39,000  Level Indianapolis Center
08:59AM 36.9578 -84.0458 69° East 450 518 39,000  Level Indianapolis Center
09:00AM 37.0083 -83.8728 70° East 457 526 39,000  Level Indianapolis Center
09:01AM 37.0528 -83.7269 69° East 449 517 39,000  Level Indianapolis Center
09:02AM 37.0958 -83.5775 70° East 451 519 39,000  Level Indianapolis Center
09:03AM 37.1389 -83.4272 70° East 455 524 39,000  Level Indianapolis Center
09:04AM 37.1839 -83.2778 69° East 453 521 39,000  Level Indianapolis Center
09:05AM 37.2272 -83.1275 70° East 453 521 39,000  Level Indianapolis Center
09:06AM 37.2700 -82.9761 70° East 456 525 39,000  Level Indianapolis Center
09:07AM 37.3131 -82.8253 70° East 456 525 39,000  Level Indianapolis Center
09:08AM 37.3561 -82.6764 70° East 451 519 39,000  Level Indianapolis Center
09:09AM 37.4042 -82.5033 71° East 449 517 39,000  Level Indianapolis Center
09:10AM 37.4453 -82.3578 70° East 441 507 39,000  Level Indianapolis Center
09:11AM 37.4869 -82.2122 70° East 441 507 39,000  Level Indianapolis Center
09:12AM 37.5281 -82.0644 71° East 444 511 39,000  Level Indianapolis Center
09:13AM 37.5689 -81.9167 71° East 446 513 39,000  Level Indianapolis Center
09:14AM 37.6089 -81.7664 71° East 450 518 39,000  Level Indianapolis Center
09:15AM 37.6558 -81.5914 71° East 451 519 39,000  Level Indianapolis Center
09:16AM 37.6914 -81.4603 71° East 455 524 39,000  Level Indianapolis Center
09:18AM 37.7394 -81.2828 71° East 457 526 39,000  Level Indianapolis Center
09:18AM 37.7508 -81.2283 75° East 450 518 39,000  Level Washington Center
09:19AM 37.7831 -81.0731 75° East 450 518 39,000  Level Washington Center
09:20AM 37.7944 -80.9111 85° East 455 524 39,000  Level Washington Center
09:21AM 37.8067 -80.7306 85° East 460 529 39,000  Level Washington Center
09:22AM 37.8175 -80.5683 85° East 460 529 39,000  Level Washington Center
09:23AM 37.8261 -80.4083 86° East 460 529 39,000  Level Washington Center
09:24AM 37.8367 -80.2486 85° East 455 524 39,000  Level Washington Center
09:25AM 37.8469 -80.0914 85° East 455 524 39,000  Level Washington Center
09:26AM 37.8564 -79.9500 85° East 455 524 39,000  Level Washington Center
09:27AM 37.8661 -79.7900 86° East 455 524 39,000  Level Washington Center
09:28AM 37.8758 -79.6300 86° East 455 524 39,000  Level Washington Center
09:29AM 37.8853 -79.4700 86° East 460 529 39,000  Level Washington Center
09:30AM 37.8947 -79.3100 86° East 455 524 39,000  Level Washington Center
09:31AM 37.9014 -79.1500 87° East 455 524 39,000  Level Washington Center
09:32AM 37.9211 -78.9744 82° East 460 529 39,000  Level Washington Center
09:33AM 37.9403 -78.8119 81° East 460 529 39,000  Level Washington Center
09:34AM 37.9592 -78.6494 82° East 460 529 39,000  Level Washington Center
09:35AM 37.9775 -78.4922 82° East 460 529 39,000  Level Washington Center
09:36AM 37.9958 -78.3428 81° East 446 513 39,000  Level Washington Center
09:37AM 38.0114 -78.2061 82° East 440 506 39,000  Level Washington Center
09:38AM 38.0603 -78.0603 67° East 408 470 39,000  Level Washington Center
09:39AM 38.1769 -78.0667 358° North 327 376 39,000  Level Washington Center
09:40AM 38.2178 -78.2003 291° West 255 293 39,000  Level Washington Center
09:41AM 38.2000 -78.3503 261° West 322 371 39,000  Level Washington Center
09:42AM 38.1614 -78.4833 250° West 364 419 39,000  Level Washington Center
09:43AM 38.0522 -78.5108 191° South 323 372 39,000  Level Washington Center
09:44AM 37.9883 -78.3950 125° Southeast 253 291 39,000  Level Washington Center
09:45AM 38.0064 -78.2431 81° East 299 344 39,000  Level Washington Center
09:46AM 38.0347 -78.0883 77° East 364 419 39,000  Level Washington Center
09:47AM 38.1481 -78.0472 16° North 317 365 39,000  Level Washington Center
09:48AM 38.2189 -78.1606 309° West 266 306 39,000  Level Washington Center
09:49AM 38.2050 -78.3108 263° West 287 330 39,000  Level Washington Center
09:50AM 38.1808 -78.4525 258° West 359 413 39,000  Level Washington Center
09:51AM 38.0853 -78.5200 209° Southwest 337 388 39,000  Level Washington Center
09:52AM 37.9956 -78.4403 145° Southeast 282 325 39,000  Level Washington Center
09:53AM 38.0033 -78.2875 86° East 279 321 39,000  Level Washington Center
09:54AM 38.0194 -78.1247 83° East 353 406 39,000  Level Washington Center
09:55AM 38.1150 -78.0408 35° Northeast 333 383 39,000  Level Washington Center
09:56AM 38.2114 -78.1208 327° Northwest 280 322 39,000  Level Washington Center
09:57AM 38.2122 -78.2661 270° West 265 305 39,000  Level Washington Center
09:58AM 38.1944 -78.4108 261° West 338 389 39,000  Level Washington Center
09:59AM 38.1167 -78.5161 227° Southwest 360 414 39,000  Level Washington Center
10:00AM 38.0094 -78.4725 162° South 302 348 39,000  Level Washington Center
10:01AM 37.9939 -78.3322 98° East 268 308 39,000  Level Washington Center
10:02AM 38.0139 -78.1800 80° East 327 376 39,000  Level Washington Center
10:03AM 38.0403 -78.0228 78° East 397 457 39,000  Level Washington Center
10:04AM 38.0639 -77.8731 79° East 413 475 39,000  Level Washington Center
10:05AM 38.0897 -77.7236 78° East 427 491 39,000 -240 Level Washington Center
10:06AM 38.1108 -77.5764 80° East 427 491 38,600 -720 Descending Washington Center
10:07AM 38.1319 -77.4292 80° East 427 491 37,600 -840 Descending Washington Center
10:08AM 38.1531 -77.2869 79° East 422 486 37,000 -300 Descending Washington Center
10:09AM 38.1778 -77.1447 77° East 416 479 37,000  Level Washington Center
10:10AM 38.1794 -77.0022 89° East 408 470 37,000  Level Washington Center
10:11AM 38.1706 -76.8594 94° East 402 463 37,000  Level Washington Center
10:12AM 38.1742 -76.7169 88° East 402 463 37,000 -840 Level Washington Center
10:13AM 38.2461 -76.6097 49° Northeast 381 438 35,400 -1,740 Descending Washington Center
10:14AM 38.3422 -76.5897 North 343 395 33,500 -2,160 Descending Washington Center
10:15AM 38.4544 -76.6150 350° North 343 395 31,200 -1,620 Descending Washington Center
10:16AM 38.5733 -76.6272 355° North 383 441 30,400 -900 Descending Washington Center
10:17AM 38.6553 -76.5328 42° Northeast 361 415 29,400 -1,020 Descending Washington Center
10:18AM 38.7042 -76.4003 65° Northeast 361 415 28,400 -1,020 Descending Washington Center
10:19AM 38.7550 -76.2758 62° Northeast 379 436 27,400 -720 Descending Washington Center
10:20AM 38.8058 -76.1511 62° Northeast 385 443 27,000 -240 Descending Washington Center
10:21AM 38.8522 -76.0233 65° Northeast 385 443 27,000  Level Washington Center
10:22AM 38.9003 -75.9011 63° Northeast 385 443 27,000  Level Washington Center
10:23AM 38.9569 -75.7786 59° Northeast 385 443 27,000 -60 Level Washington Center
10:24AM 39.0486 -75.6906 37° Northeast 391 450 26,900  Descending Washington Center
10:25AM 39.1447 -75.5997 36° Northeast 401 461 27,000  Climbing Washington Center
10:26AM 39.2467 -75.5058 35° Northeast 426 490 27,000 -60 Level Washington Center
10:27AM 39.3489 -75.4144 35° Northeast 439 505 26,900 -1,200 Descending Washington Center
10:28AM 39.4508 -75.3228 35° Northeast 444 511 24,700 -2,280 Descending Washington Center
10:29AM 39.5464 -75.2336 36° Northeast 444 511 22,500 -2,280 Descending Washington Center
10:30AM 39.6397 -75.1497 35° Northeast 427 491 20,300 -2,160 Descending Washington Center
10:31AM 39.7292 -75.0708 34° Northeast 401 461 18,200 -1,980 Descending Washington Center
10:32AM 39.8267 -74.9836 34° Northeast 388 447 16,300 -1,920 Descending Washington Center
10:33AM 39.8969 -74.9208 34° Northeast 361 415 14,400 -1,740 Descending Washington Center
10:34AM 39.9675 -74.8361 43° Northeast 328 377 12,900 -1,260 Descending Washington Center
10:35AM 40.0361 -74.8247 North 257 296 11,900 -540 Descending Washington Center
10:36AM 40.0219 -74.9142 258° West 130 150 11,900  Level Washington Center
10:37AM 39.9703 -74.9797 224° Southwest 157 181 11,900  Level Washington Center
10:38AM 39.9139 -74.9586 164° South 160 184 11,900  Level Washington Center
10:39AM 39.9344 -74.8772 72° East 120 138 11,900  Level Washington Center
10:40AM 39.9861 -74.8144 43° Northeast 178 205 11,900  Level Washington Center
10:41AM 40.0425 -74.8569 330° Northwest 166 191 11,900  Level Washington Center
10:42AM 40.0033 -74.9361 237° Southwest 144 166 11,900  Level Washington Center
10:43AM 39.9494 -74.9853 215° Southwest 185 213 11,900  Level Washington Center
10:44AM 39.9097 -74.9289 133° Southeast 141 162 11,900  Level Washington Center
10:45AM 39.9508 -74.8553 54° Northeast 119 137 11,900  Level Washington Center
10:46AM 40.0108 -74.8144 28° Northeast 161 185 11,900  Level New York Center
10:47AM 40.0333 -74.8861 292° West 181 208 12,000  Climbing New York Center
10:48AM 39.9758 -74.9208 205° Southwest 142 163 12,000  Level New York Center
10:49AM 39.9639 -74.8497 102° East 117 135 12,000 -60 Level New York Center
10:50AM 39.9717 -74.7389 85° East 218 251 11,900 -60 Descending New York Center
10:51AM 39.9797 -74.6231 85° East 282 325 11,900  Level New York Center
10:52AM 39.9858 -74.5042 86° East 298 343 11,900  Level New York Center
10:53AM 39.9914 -74.3906 86° East 312 359 12,000  Climbing New York Center
10:54AM 39.9967 -74.2853 86° East 317 365 12,000  Level New York Center
10:55AM 40.0025 -74.1556 87° East 322 371 12,000 -240 Level New York Center
10:56AM 40.0100 -74.0392 85° East 322 371 11,600 -600 Descending New York Center
10:57AM 40.0192 -73.9314 84° East 316 364 10,900 -300 Descending New York Center
10:58AM 40.0711 -73.8631 45° Northeast 285 328 11,000 -600 Climbing New York Center
10:59AM 40.1256 -73.7678 53° Northeast 285 328 9,700 -1,320 Descending New York Center
10:59AM 40.1333 -73.7500 60° Northeast 296 341 9,400 -1,380 Descending New York TRACON
11:00AM 40.2000 -73.6833 37° Northeast 298 343 7,900 -1,560 Descending New York TRACON
11:01AM 40.2667 -73.7333 330° Northwest 308 354 6,300 -1,620 Descending New York TRACON
11:02AM 40.3167 -73.8333 303° West 307 353 4,700 -1,320 Descending New York TRACON
11:03AM 40.3497 -73.8811 312° West 298 343 4,000 -900 Descending New York Center
11:03AM 40.3833 -73.8833 357° North 274 315 3,800 -840 Descending New York TRACON
11:04AM 40.4333 -73.9000 346° North 215 247 3,000 -900 Descending New York TRACON
11:05AM 40.4833 -73.8833 14° North 184 212 2,000 -480 Descending New York TRACON
11:06AM 40.5333 -73.8500 27° Northeast 182 209 2,000 -420 Level New York TRACON
11:07AM 40.5667 -73.8167 37° Northeast 158 182 1,200 -780 Descending New York TRACON
11:08AM 40.6000 -73.7833 37° Northeast 134 154 500 4,020 Descending New York TRACON
11:10AM 40.6658 -73.7450 24° Northeast 150 173 12,000 6,780 Climbing New York Center
11:12AM 40.6333 -73.7667 237° Southwest  Level FlightAware Approximate